sensor_id;sensor_type;location;lat;lon;timestamp;P1;durP1;ratioP1;P2;durP2;ratioP2
75189;SDS011;69198;44.694;37.790;2023-05-20T00:00:22;20.37;;;10.97;;
75189;SDS011;69198;44.694;37.790;2023-05-20T00:01:23;25.03;;;10.93;;
75189;SDS011;69198;44.694;37.790;2023-05-20T00:02:24;20.83;;;10.80;;
75189;SDS011;69198;44.694;37.790;2023-05-20T00:03:25;20.15;;;10.50;;
75189;SDS011;69198;44.694;37.790;2023-05-20T00:04:26;24.48;;;11.52;;
75189;SDS011;69198;44.694;37.790;2023-05-20T00:05:26;22.98;;;10.82;;
75189;SDS011;69198;44.694;37.790;2023-05-20T00:06:27;22.33;;;10.95;;
75189;SDS011;69198;44.694;37.790;2023-05-20T00:07:28;23.60;;;10.70;;
75189;SDS011;69198;44.694;37.790;2023-05-20T00:08:30;23.73;;;10.87;;
75189;SDS011;69198;44.694;37.790;2023-05-20T00:09:31;23.33;;;11.10;;
75189;SDS011;69198;44.694;37.790;2023-05-20T00:10:32;22.50;;;11.00;;
75189;SDS011;69198;44.694;37.790;2023-05-20T00:11:33;20.30;;;10.35;;
75189;SDS011;69198;44.694;37.790;2023-05-20T00:12:34;22.05;;;10.77;;
75189;SDS011;69198;44.694;37.790;2023-05-20T00:13:35;21.13;;;11.30;;
75189;SDS011;69198;44.694;37.790;2023-05-20T00:14:36;21.30;;;10.60;;
75189;SDS011;69198;44.694;37.790;2023-05-20T00:15:37;21.15;;;10.93;;
75189;SDS011;69198;44.694;37.790;2023-05-20T00:16:38;23.70;;;11.27;;
75189;SDS011;69198;44.694;37.790;2023-05-20T00:17:39;23.88;;;11.57;;
75189;SDS011;69198;44.694;37.790;2023-05-20T00:18:40;26.87;;;11.80;;
75189;SDS011;69198;44.694;37.790;2023-05-20T00:19:41;26.98;;;11.25;;
75189;SDS011;69198;44.694;37.790;2023-05-20T00:20:42;25.23;;;11.38;;
75189;SDS011;69198;44.694;37.790;2023-05-20T00:21:43;24.75;;;10.80;;
75189;SDS011;69198;44.694;37.790;2023-05-20T00:22:44;26.77;;;11.77;;
75189;SDS011;69198;44.694;37.790;2023-05-20T00:23:45;24.73;;;12.25;;
75189;SDS011;69198;44.694;37.790;2023-05-20T00:24:46;23.63;;;11.27;;
75189;SDS011;69198;44.694;37.790;2023-05-20T00:25:48;25.92;;;11.95;;
75189;SDS011;69198;44.694;37.790;2023-05-20T00:26:49;27.15;;;11.73;;
75189;SDS011;69198;44.694;37.790;2023-05-20T00:27:50;27.17;;;11.38;;
75189;SDS011;69198;44.694;37.790;2023-05-20T00:28:52;26.73;;;11.57;;
75189;SDS011;69198;44.694;37.790;2023-05-20T00:29:53;28.20;;;12.77;;
75189;SDS011;69198;44.694;37.790;2023-05-20T00:30:54;25.65;;;11.80;;
75189;SDS011;69198;44.694;37.790;2023-05-20T00:31:55;25.38;;;11.35;;
75189;SDS011;69198;44.694;37.790;2023-05-20T00:32:56;24.30;;;11.48;;
75189;SDS011;69198;44.694;37.790;2023-05-20T00:33:57;23.50;;;11.52;;
75189;SDS011;69198;44.694;37.790;2023-05-20T00:34:58;23.45;;;11.32;;
75189;SDS011;69198;44.694;37.790;2023-05-20T00:36:00;28.75;;;11.50;;
75189;SDS011;69198;44.694;37.790;2023-05-20T00:37:01;29.40;;;12.27;;
75189;SDS011;69198;44.694;37.790;2023-05-20T00:38:02;27.80;;;12.47;;
75189;SDS011;69198;44.694;37.790;2023-05-20T00:39:03;30.43;;;14.83;;
75189;SDS011;69198;44.694;37.790;2023-05-20T00:40:04;26.80;;;12.75;;
75189;SDS011;69198;44.694;37.790;2023-05-20T00:41:06;26.58;;;11.55;;
75189;SDS011;69198;44.694;37.790;2023-05-20T00:42:07;26.40;;;12.38;;
75189;SDS011;69198;44.694;37.790;2023-05-20T00:43:08;27.30;;;12.10;;
75189;SDS011;69198;44.694;37.790;2023-05-20T00:44:10;29.15;;;12.40;;
75189;SDS011;69198;44.694;37.790;2023-05-20T00:45:11;25.45;;;12.57;;
75189;SDS011;69198;44.694;37.790;2023-05-20T00:46:13;25.40;;;12.30;;
75189;SDS011;69198;44.694;37.790;2023-05-20T00:47:14;25.17;;;12.13;;
75189;SDS011;69198;44.694;37.790;2023-05-20T00:48:17;22.90;;;11.18;;
75189;SDS011;69198;44.694;37.790;2023-05-20T00:49:21;23.25;;;11.57;;
75189;SDS011;69198;44.694;37.790;2023-05-20T00:50:23;24.35;;;12.77;;
75189;SDS011;69198;44.694;37.790;2023-05-20T00:51:24;28.25;;;12.05;;
75189;SDS011;69198;44.694;37.790;2023-05-20T00:52:26;31.20;;;12.73;;
75189;SDS011;69198;44.694;37.790;2023-05-20T00:53:30;24.23;;;12.10;;
75189;SDS011;69198;44.694;37.790;2023-05-20T00:54:31;26.52;;;11.85;;
75189;SDS011;69198;44.694;37.790;2023-05-20T00:55:33;28.15;;;13.27;;
75189;SDS011;69198;44.694;37.790;2023-05-20T00:56:35;25.40;;;12.80;;
75189;SDS011;69198;44.694;37.790;2023-05-20T00:57:36;27.37;;;13.03;;
75189;SDS011;69198;44.694;37.790;2023-05-20T00:58:38;28.40;;;13.00;;
75189;SDS011;69198;44.694;37.790;2023-05-20T00:59:39;27.77;;;13.80;;
75189;SDS011;69198;44.694;37.790;2023-05-20T01:00:41;30.40;;;13.15;;
75189;SDS011;69198;44.694;37.790;2023-05-20T01:01:42;24.27;;;12.40;;
75189;SDS011;69198;44.694;37.790;2023-05-20T01:02:43;28.23;;;12.82;;
75189;SDS011;69198;44.694;37.790;2023-05-20T01:03:45;27.88;;;12.63;;
75189;SDS011;69198;44.694;37.790;2023-05-20T01:04:46;29.75;;;12.77;;
75189;SDS011;69198;44.694;37.790;2023-05-20T01:05:48;26.85;;;13.07;;
75189;SDS011;69198;44.694;37.790;2023-05-20T01:06:49;28.80;;;13.25;;
75189;SDS011;69198;44.694;37.790;2023-05-20T01:07:50;27.30;;;13.40;;
75189;SDS011;69198;44.694;37.790;2023-05-20T01:08:51;25.92;;;12.35;;
75189;SDS011;69198;44.694;37.790;2023-05-20T01:09:52;30.30;;;12.90;;
75189;SDS011;69198;44.694;37.790;2023-05-20T01:10:57;26.35;;;13.15;;
75189;SDS011;69198;44.694;37.790;2023-05-20T01:12:15;25.85;;;12.60;;
75189;SDS011;69198;44.694;37.790;2023-05-20T01:13:20;27.98;;;13.38;;
75189;SDS011;69198;44.694;37.790;2023-05-20T01:14:27;30.52;;;13.55;;
75189;SDS011;69198;44.694;37.790;2023-05-20T01:15:31;27.60;;;13.07;;
75189;SDS011;69198;44.694;37.790;2023-05-20T01:16:32;30.23;;;13.57;;
75189;SDS011;69198;44.694;37.790;2023-05-20T01:17:37;28.38;;;13.25;;
75189;SDS011;69198;44.694;37.790;2023-05-20T01:18:40;30.03;;;13.77;;
75189;SDS011;69198;44.694;37.790;2023-05-20T01:19:46;30.20;;;13.85;;
75189;SDS011;69198;44.694;37.790;2023-05-20T01:20:48;28.75;;;13.50;;
75189;SDS011;69198;44.694;37.790;2023-05-20T01:21:50;29.42;;;12.90;;
75189;SDS011;69198;44.694;37.790;2023-05-20T01:22:53;33.30;;;13.80;;
75189;SDS011;69198;44.694;37.790;2023-05-20T01:23:56;27.65;;;13.27;;
75189;SDS011;69198;44.694;37.790;2023-05-20T01:24:57;31.33;;;14.25;;
75189;SDS011;69198;44.694;37.790;2023-05-20T01:25:59;29.95;;;13.88;;
75189;SDS011;69198;44.694;37.790;2023-05-20T01:27:00;29.13;;;13.70;;
75189;SDS011;69198;44.694;37.790;2023-05-20T01:28:02;31.17;;;14.20;;
75189;SDS011;69198;44.694;37.790;2023-05-20T01:29:03;30.60;;;12.80;;
75189;SDS011;69198;44.694;37.790;2023-05-20T01:30:04;34.00;;;14.50;;
75189;SDS011;69198;44.694;37.790;2023-05-20T01:31:09;27.70;;;13.85;;
75189;SDS011;69198;44.694;37.790;2023-05-20T01:32:19;31.42;;;14.05;;
75189;SDS011;69198;44.694;37.790;2023-05-20T01:33:42;30.35;;;13.65;;
75189;SDS011;69198;44.694;37.790;2023-05-20T01:34:43;36.65;;;15.98;;
75189;SDS011;69198;44.694;37.790;2023-05-20T01:35:48;34.08;;;15.45;;
75189;SDS011;69198;44.694;37.790;2023-05-20T01:36:50;36.22;;;15.63;;
75189;SDS011;69198;44.694;37.790;2023-05-20T01:37:52;30.77;;;13.98;;
75189;SDS011;69198;44.694;37.790;2023-05-20T01:38:53;34.27;;;15.70;;
75189;SDS011;69198;44.694;37.790;2023-05-20T01:39:56;32.95;;;15.85;;
75189;SDS011;69198;44.694;37.790;2023-05-20T01:40:58;41.97;;;16.17;;
75189;SDS011;69198;44.694;37.790;2023-05-20T01:42:04;36.25;;;16.95;;
75189;SDS011;69198;44.694;37.790;2023-05-20T01:43:06;35.05;;;15.75;;
75189;SDS011;69198;44.694;37.790;2023-05-20T01:44:09;31.92;;;15.27;;
75189;SDS011;69198;44.694;37.790;2023-05-20T01:45:10;34.58;;;15.80;;
75189;SDS011;69198;44.694;37.790;2023-05-20T01:46:12;35.70;;;15.40;;
75189;SDS011;69198;44.694;37.790;2023-05-20T01:47:14;38.00;;;16.92;;
75189;SDS011;69198;44.694;37.790;2023-05-20T01:48:15;36.37;;;16.37;;
75189;SDS011;69198;44.694;37.790;2023-05-20T01:49:17;36.22;;;17.08;;
75189;SDS011;69198;44.694;37.790;2023-05-20T01:50:18;35.22;;;15.85;;
75189;SDS011;69198;44.694;37.790;2023-05-20T01:51:19;34.00;;;16.02;;
75189;SDS011;69198;44.694;37.790;2023-05-20T01:52:20;36.72;;;16.02;;
75189;SDS011;69198;44.694;37.790;2023-05-20T01:53:22;46.58;;;20.35;;
75189;SDS011;69198;44.694;37.790;2023-05-20T01:54:23;46.97;;;21.35;;
75189;SDS011;69198;44.694;37.790;2023-05-20T01:55:24;53.35;;;25.77;;
75189;SDS011;69198;44.694;37.790;2023-05-20T01:56:25;42.42;;;18.45;;
75189;SDS011;69198;44.694;37.790;2023-05-20T01:57:26;41.03;;;17.53;;
75189;SDS011;69198;44.694;37.790;2023-05-20T01:58:27;37.45;;;17.40;;
75189;SDS011;69198;44.694;37.790;2023-05-20T01:59:28;39.90;;;17.30;;
75189;SDS011;69198;44.694;37.790;2023-05-20T02:00:30;39.40;;;17.73;;
75189;SDS011;69198;44.694;37.790;2023-05-20T02:01:33;39.50;;;17.40;;
75189;SDS011;69198;44.694;37.790;2023-05-20T02:02:34;37.70;;;17.13;;
75189;SDS011;69198;44.694;37.790;2023-05-20T02:03:35;42.65;;;18.17;;
75189;SDS011;69198;44.694;37.790;2023-05-20T02:04:36;37.72;;;16.55;;
75189;SDS011;69198;44.694;37.790;2023-05-20T02:05:37;41.50;;;17.47;;
75189;SDS011;69198;44.694;37.790;2023-05-20T02:06:39;39.28;;;17.33;;
75189;SDS011;69198;44.694;37.790;2023-05-20T02:07:40;44.28;;;17.58;;
75189;SDS011;69198;44.694;37.790;2023-05-20T02:08:41;36.78;;;17.85;;
75189;SDS011;69198;44.694;37.790;2023-05-20T02:09:42;37.17;;;16.15;;
75189;SDS011;69198;44.694;37.790;2023-05-20T02:10:43;38.13;;;16.75;;
75189;SDS011;69198;44.694;37.790;2023-05-20T02:11:47;36.08;;;16.70;;
75189;SDS011;69198;44.694;37.790;2023-05-20T02:12:48;37.22;;;16.85;;
75189;SDS011;69198;44.694;37.790;2023-05-20T02:13:49;33.38;;;16.27;;
75189;SDS011;69198;44.694;37.790;2023-05-20T02:14:51;38.37;;;16.47;;
75189;SDS011;69198;44.694;37.790;2023-05-20T02:15:52;37.47;;;17.40;;
75189;SDS011;69198;44.694;37.790;2023-05-20T02:16:53;39.35;;;17.15;;
75189;SDS011;69198;44.694;37.790;2023-05-20T02:17:54;35.50;;;16.20;;
75189;SDS011;69198;44.694;37.790;2023-05-20T02:18:57;38.85;;;17.13;;
75189;SDS011;69198;44.694;37.790;2023-05-20T02:19:58;38.53;;;17.02;;
75189;SDS011;69198;44.694;37.790;2023-05-20T02:21:03;34.38;;;15.45;;
75189;SDS011;69198;44.694;37.790;2023-05-20T02:22:05;40.08;;;16.85;;
75189;SDS011;69198;44.694;37.790;2023-05-20T02:23:06;36.22;;;16.00;;
75189;SDS011;69198;44.694;37.790;2023-05-20T02:24:08;39.50;;;17.53;;
75189;SDS011;69198;44.694;37.790;2023-05-20T02:25:09;38.25;;;16.98;;
75189;SDS011;69198;44.694;37.790;2023-05-20T02:26:10;39.08;;;17.42;;
75189;SDS011;69198;44.694;37.790;2023-05-20T02:27:11;39.78;;;17.42;;
75189;SDS011;69198;44.694;37.790;2023-05-20T02:28:12;38.63;;;16.95;;
75189;SDS011;69198;44.694;37.790;2023-05-20T02:29:13;40.15;;;16.70;;
75189;SDS011;69198;44.694;37.790;2023-05-20T02:30:14;38.63;;;16.42;;
75189;SDS011;69198;44.694;37.790;2023-05-20T02:31:16;38.92;;;16.35;;
75189;SDS011;69198;44.694;37.790;2023-05-20T02:32:17;35.00;;;16.17;;
75189;SDS011;69198;44.694;37.790;2023-05-20T02:33:20;35.73;;;15.20;;
75189;SDS011;69198;44.694;37.790;2023-05-20T02:34:21;35.78;;;15.70;;
75189;SDS011;69198;44.694;37.790;2023-05-20T02:35:22;37.05;;;16.25;;
75189;SDS011;69198;44.694;37.790;2023-05-20T02:36:24;37.50;;;17.40;;
75189;SDS011;69198;44.694;37.790;2023-05-20T02:37:25;37.60;;;16.33;;
75189;SDS011;69198;44.694;37.790;2023-05-20T02:38:26;38.67;;;16.50;;
75189;SDS011;69198;44.694;37.790;2023-05-20T02:39:27;36.80;;;17.08;;
75189;SDS011;69198;44.694;37.790;2023-05-20T02:40:28;32.50;;;15.95;;
75189;SDS011;69198;44.694;37.790;2023-05-20T02:41:29;31.15;;;15.07;;
75189;SDS011;69198;44.694;37.790;2023-05-20T02:42:30;33.05;;;16.20;;
75189;SDS011;69198;44.694;37.790;2023-05-20T02:43:31;33.97;;;15.07;;
75189;SDS011;69198;44.694;37.790;2023-05-20T02:44:34;29.88;;;15.13;;
75189;SDS011;69198;44.694;37.790;2023-05-20T02:45:35;35.45;;;15.82;;
75189;SDS011;69198;44.694;37.790;2023-05-20T02:46:36;33.63;;;15.07;;
75189;SDS011;69198;44.694;37.790;2023-05-20T02:47:38;30.88;;;15.27;;
75189;SDS011;69198;44.694;37.790;2023-05-20T02:48:40;30.27;;;14.02;;
75189;SDS011;69198;44.694;37.790;2023-05-20T02:49:41;31.73;;;14.77;;
75189;SDS011;69198;44.694;37.790;2023-05-20T02:50:42;26.95;;;13.68;;
75189;SDS011;69198;44.694;37.790;2023-05-20T02:51:43;31.58;;;14.70;;
75189;SDS011;69198;44.694;37.790;2023-05-20T02:52:44;27.55;;;14.23;;
75189;SDS011;69198;44.694;37.790;2023-05-20T02:53:46;26.77;;;13.13;;
75189;SDS011;69198;44.694;37.790;2023-05-20T02:54:47;26.38;;;13.30;;
75189;SDS011;69198;44.694;37.790;2023-05-20T02:55:49;28.80;;;13.35;;
75189;SDS011;69198;44.694;37.790;2023-05-20T02:56:51;25.98;;;13.05;;
75189;SDS011;69198;44.694;37.790;2023-05-20T02:57:52;23.58;;;11.80;;
75189;SDS011;69198;44.694;37.790;2023-05-20T02:58:53;27.75;;;12.18;;
75189;SDS011;69198;44.694;37.790;2023-05-20T02:59:54;24.38;;;11.45;;
75189;SDS011;69198;44.694;37.790;2023-05-20T03:00:56;20.48;;;11.55;;
75189;SDS011;69198;44.694;37.790;2023-05-20T03:01:57;25.95;;;12.35;;
75189;SDS011;69198;44.694;37.790;2023-05-20T03:02:58;22.00;;;10.97;;
75189;SDS011;69198;44.694;37.790;2023-05-20T03:04:01;21.02;;;11.18;;
75189;SDS011;69198;44.694;37.790;2023-05-20T03:05:03;23.85;;;11.68;;
75189;SDS011;69198;44.694;37.790;2023-05-20T03:06:04;23.15;;;10.77;;
75189;SDS011;69198;44.694;37.790;2023-05-20T03:07:06;21.17;;;10.38;;
75189;SDS011;69198;44.694;37.790;2023-05-20T03:08:09;20.00;;;9.32;;
75189;SDS011;69198;44.694;37.790;2023-05-20T03:09:10;20.13;;;10.20;;
75189;SDS011;69198;44.694;37.790;2023-05-20T03:10:11;18.67;;;9.65;;
75189;SDS011;69198;44.694;37.790;2023-05-20T03:11:13;18.73;;;9.15;;
75189;SDS011;69198;44.694;37.790;2023-05-20T03:12:14;18.20;;;9.47;;
75189;SDS011;69198;44.694;37.790;2023-05-20T03:13:15;19.23;;;10.18;;
75189;SDS011;69198;44.694;37.790;2023-05-20T03:14:16;19.50;;;9.45;;
75189;SDS011;69198;44.694;37.790;2023-05-20T03:15:17;15.65;;;8.60;;
75189;SDS011;69198;44.694;37.790;2023-05-20T03:16:18;17.50;;;9.65;;
75189;SDS011;69198;44.694;37.790;2023-05-20T03:17:20;15.77;;;8.32;;
75189;SDS011;69198;44.694;37.790;2023-05-20T03:18:22;19.10;;;8.50;;
75189;SDS011;69198;44.694;37.790;2023-05-20T03:19:23;15.15;;;8.32;;
75189;SDS011;69198;44.694;37.790;2023-05-20T03:20:24;14.98;;;7.68;;
75189;SDS011;69198;44.694;37.790;2023-05-20T03:21:26;13.83;;;7.47;;
75189;SDS011;69198;44.694;37.790;2023-05-20T03:22:27;17.00;;;8.13;;
75189;SDS011;69198;44.694;37.790;2023-05-20T03:23:29;13.95;;;7.53;;
75189;SDS011;69198;44.694;37.790;2023-05-20T03:24:30;17.52;;;7.45;;
75189;SDS011;69198;44.694;37.790;2023-05-20T03:25:31;14.07;;;6.85;;
75189;SDS011;69198;44.694;37.790;2023-05-20T03:26:32;13.40;;;5.93;;
75189;SDS011;69198;44.694;37.790;2023-05-20T03:27:38;13.60;;;6.10;;
75189;SDS011;69198;44.694;37.790;2023-05-20T03:28:40;11.73;;;5.03;;
75189;SDS011;69198;44.694;37.790;2023-05-20T03:29:42;11.50;;;5.13;;
75189;SDS011;69198;44.694;37.790;2023-05-20T03:30:43;11.45;;;5.30;;
75189;SDS011;69198;44.694;37.790;2023-05-20T03:31:44;11.30;;;6.00;;
75189;SDS011;69198;44.694;37.790;2023-05-20T03:32:46;12.35;;;4.80;;
75189;SDS011;69198;44.694;37.790;2023-05-20T03:33:47;13.57;;;5.63;;
75189;SDS011;69198;44.694;37.790;2023-05-20T03:34:48;13.70;;;5.10;;
75189;SDS011;69198;44.694;37.790;2023-05-20T03:35:49;9.88;;;4.10;;
75189;SDS011;69198;44.694;37.790;2023-05-20T03:36:50;10.85;;;4.68;;
75189;SDS011;69198;44.694;37.790;2023-05-20T03:37:51;12.80;;;4.60;;
75189;SDS011;69198;44.694;37.790;2023-05-20T03:38:53;10.48;;;4.13;;
75189;SDS011;69198;44.694;37.790;2023-05-20T03:39:54;12.50;;;4.30;;
75189;SDS011;69198;44.694;37.790;2023-05-20T03:40:55;11.43;;;4.23;;
75189;SDS011;69198;44.694;37.790;2023-05-20T03:41:57;9.02;;;3.72;;
75189;SDS011;69198;44.694;37.790;2023-05-20T03:42:58;7.75;;;3.40;;
75189;SDS011;69198;44.694;37.790;2023-05-20T03:43:59;8.93;;;3.67;;
75189;SDS011;69198;44.694;37.790;2023-05-20T03:45:00;8.95;;;3.97;;
75189;SDS011;69198;44.694;37.790;2023-05-20T03:46:05;9.13;;;3.75;;
75189;SDS011;69198;44.694;37.790;2023-05-20T03:47:06;11.35;;;4.07;;
75189;SDS011;69198;44.694;37.790;2023-05-20T03:48:08;8.98;;;3.78;;
75189;SDS011;69198;44.694;37.790;2023-05-20T03:49:09;9.97;;;3.80;;
75189;SDS011;69198;44.694;37.790;2023-05-20T03:50:10;11.73;;;3.83;;
75189;SDS011;69198;44.694;37.790;2023-05-20T03:51:12;10.55;;;4.15;;
75189;SDS011;69198;44.694;37.790;2023-05-20T03:52:13;10.38;;;3.70;;
75189;SDS011;69198;44.694;37.790;2023-05-20T03:53:14;10.50;;;4.55;;
75189;SDS011;69198;44.694;37.790;2023-05-20T03:54:16;10.85;;;4.18;;
75189;SDS011;69198;44.694;37.790;2023-05-20T03:55:21;10.02;;;4.13;;
75189;SDS011;69198;44.694;37.790;2023-05-20T03:56:22;12.85;;;4.85;;
75189;SDS011;69198;44.694;37.790;2023-05-20T03:57:23;13.38;;;5.38;;
75189;SDS011;69198;44.694;37.790;2023-05-20T03:58:25;11.30;;;4.63;;
75189;SDS011;69198;44.694;37.790;2023-05-20T03:59:28;11.43;;;5.20;;
75189;SDS011;69198;44.694;37.790;2023-05-20T04:00:29;11.27;;;5.15;;
75189;SDS011;69198;44.694;37.790;2023-05-20T04:01:31;12.27;;;4.93;;
75189;SDS011;69198;44.694;37.790;2023-05-20T04:02:33;10.88;;;5.32;;
75189;SDS011;69198;44.694;37.790;2023-05-20T04:03:34;10.93;;;4.78;;
75189;SDS011;69198;44.694;37.790;2023-05-20T04:04:35;10.98;;;4.88;;
75189;SDS011;69198;44.694;37.790;2023-05-20T04:05:36;10.68;;;5.20;;
75189;SDS011;69198;44.694;37.790;2023-05-20T04:06:40;9.93;;;4.85;;
75189;SDS011;69198;44.694;37.790;2023-05-20T04:07:42;14.20;;;5.15;;
75189;SDS011;69198;44.694;37.790;2023-05-20T04:08:43;11.10;;;4.57;;
75189;SDS011;69198;44.694;37.790;2023-05-20T04:09:45;12.60;;;4.32;;
75189;SDS011;69198;44.694;37.790;2023-05-20T04:10:46;10.02;;;4.00;;
75189;SDS011;69198;44.694;37.790;2023-05-20T04:11:50;12.32;;;4.22;;
75189;SDS011;69198;44.694;37.790;2023-05-20T04:12:51;9.55;;;4.00;;
75189;SDS011;69198;44.694;37.790;2023-05-20T04:13:54;12.60;;;4.05;;
75189;SDS011;69198;44.694;37.790;2023-05-20T04:14:58;11.07;;;4.03;;
75189;SDS011;69198;44.694;37.790;2023-05-20T04:16:07;11.30;;;4.38;;
75189;SDS011;69198;44.694;37.790;2023-05-20T04:17:08;9.90;;;4.00;;
75189;SDS011;69198;44.694;37.790;2023-05-20T04:18:10;11.02;;;3.97;;
75189;SDS011;69198;44.694;37.790;2023-05-20T04:19:12;11.03;;;4.30;;
75189;SDS011;69198;44.694;37.790;2023-05-20T04:20:13;9.80;;;4.55;;
75189;SDS011;69198;44.694;37.790;2023-05-20T04:21:14;11.70;;;4.57;;
75189;SDS011;69198;44.694;37.790;2023-05-20T04:22:16;10.38;;;4.47;;
75189;SDS011;69198;44.694;37.790;2023-05-20T04:23:17;8.63;;;4.40;;
75189;SDS011;69198;44.694;37.790;2023-05-20T04:24:18;9.43;;;4.53;;
75189;SDS011;69198;44.694;37.790;2023-05-20T04:25:24;8.98;;;4.47;;
75189;SDS011;69198;44.694;37.790;2023-05-20T04:26:26;10.50;;;4.53;;
75189;SDS011;69198;44.694;37.790;2023-05-20T04:27:27;9.18;;;4.50;;
75189;SDS011;69198;44.694;37.790;2023-05-20T04:28:28;9.67;;;4.50;;
75189;SDS011;69198;44.694;37.790;2023-05-20T04:29:31;10.68;;;4.38;;
75189;SDS011;69198;44.694;37.790;2023-05-20T04:30:33;9.88;;;4.75;;
75189;SDS011;69198;44.694;37.790;2023-05-20T04:31:35;13.10;;;4.43;;
75189;SDS011;69198;44.694;37.790;2023-05-20T04:32:36;8.75;;;4.10;;
75189;SDS011;69198;44.694;37.790;2023-05-20T04:33:37;10.35;;;3.72;;
75189;SDS011;69198;44.694;37.790;2023-05-20T04:34:39;9.65;;;3.92;;
75189;SDS011;69198;44.694;37.790;2023-05-20T04:35:40;11.93;;;3.95;;
75189;SDS011;69198;44.694;37.790;2023-05-20T04:36:43;8.95;;;3.60;;
75189;SDS011;69198;44.694;37.790;2023-05-20T04:37:45;12.05;;;4.10;;
75189;SDS011;69198;44.694;37.790;2023-05-20T04:38:49;12.57;;;4.10;;
75189;SDS011;69198;44.694;37.790;2023-05-20T04:39:50;9.85;;;3.85;;
75189;SDS011;69198;44.694;37.790;2023-05-20T04:40:52;11.07;;;4.07;;
75189;SDS011;69198;44.694;37.790;2023-05-20T04:41:53;10.73;;;4.18;;
75189;SDS011;69198;44.694;37.790;2023-05-20T04:42:54;16.10;;;4.07;;
75189;SDS011;69198;44.694;37.790;2023-05-20T04:43:57;10.52;;;4.10;;
75189;SDS011;69198;44.694;37.790;2023-05-20T04:45:01;11.98;;;4.32;;
75189;SDS011;69198;44.694;37.790;2023-05-20T04:46:06;12.27;;;4.50;;
75189;SDS011;69198;44.694;37.790;2023-05-20T04:47:08;11.85;;;4.25;;
75189;SDS011;69198;44.694;37.790;2023-05-20T04:48:11;9.90;;;4.90;;
75189;SDS011;69198;44.694;37.790;2023-05-20T04:49:14;12.23;;;5.13;;
75189;SDS011;69198;44.694;37.790;2023-05-20T04:50:15;9.82;;;4.53;;
75189;SDS011;69198;44.694;37.790;2023-05-20T04:51:16;10.32;;;4.78;;
75189;SDS011;69198;44.694;37.790;2023-05-20T04:52:18;8.15;;;4.05;;
75189;SDS011;69198;44.694;37.790;2023-05-20T04:53:19;12.60;;;4.03;;
75189;SDS011;69198;44.694;37.790;2023-05-20T04:54:23;13.00;;;3.42;;
75189;SDS011;69198;44.694;37.790;2023-05-20T04:55:24;10.15;;;3.90;;
75189;SDS011;69198;44.694;37.790;2023-05-20T04:56:26;10.05;;;4.03;;
75189;SDS011;69198;44.694;37.790;2023-05-20T04:57:28;10.90;;;3.90;;
75189;SDS011;69198;44.694;37.790;2023-05-20T04:58:29;9.75;;;4.10;;
75189;SDS011;69198;44.694;37.790;2023-05-20T04:59:31;10.43;;;4.30;;
75189;SDS011;69198;44.694;37.790;2023-05-20T05:00:32;11.90;;;4.07;;
75189;SDS011;69198;44.694;37.790;2023-05-20T05:01:33;12.48;;;4.57;;
75189;SDS011;69198;44.694;37.790;2023-05-20T05:02:34;8.73;;;4.18;;
75189;SDS011;69198;44.694;37.790;2023-05-20T05:03:37;9.93;;;4.47;;
75189;SDS011;69198;44.694;37.790;2023-05-20T05:04:38;10.63;;;4.55;;
75189;SDS011;69198;44.694;37.790;2023-05-20T05:05:39;11.32;;;4.20;;
75189;SDS011;69198;44.694;37.790;2023-05-20T05:06:42;14.90;;;4.47;;
75189;SDS011;69198;44.694;37.790;2023-05-20T05:07:44;8.15;;;3.90;;
75189;SDS011;69198;44.694;37.790;2023-05-20T05:08:45;9.25;;;4.22;;
75189;SDS011;69198;44.694;37.790;2023-05-20T05:09:46;10.20;;;4.03;;
75189;SDS011;69198;44.694;37.790;2023-05-20T05:10:47;9.02;;;3.75;;
75189;SDS011;69198;44.694;37.790;2023-05-20T05:11:48;8.40;;;4.28;;
75189;SDS011;69198;44.694;37.790;2023-05-20T05:12:49;9.27;;;4.25;;
75189;SDS011;69198;44.694;37.790;2023-05-20T05:13:51;10.88;;;3.60;;
75189;SDS011;69198;44.694;37.790;2023-05-20T05:14:55;10.40;;;3.67;;
75189;SDS011;69198;44.694;37.790;2023-05-20T05:16:01;9.70;;;4.20;;
75189;SDS011;69198;44.694;37.790;2023-05-20T05:17:04;9.25;;;3.78;;
75189;SDS011;69198;44.694;37.790;2023-05-20T05:18:05;12.65;;;3.75;;
75189;SDS011;69198;44.694;37.790;2023-05-20T05:19:07;11.57;;;3.83;;
75189;SDS011;69198;44.694;37.790;2023-05-20T05:20:11;8.70;;;3.70;;
75189;SDS011;69198;44.694;37.790;2023-05-20T05:21:13;8.63;;;3.60;;
75189;SDS011;69198;44.694;37.790;2023-05-20T05:22:15;9.90;;;3.83;;
75189;SDS011;69198;44.694;37.790;2023-05-20T05:23:16;8.07;;;3.40;;
75189;SDS011;69198;44.694;37.790;2023-05-20T05:24:17;10.57;;;4.00;;
75189;SDS011;69198;44.694;37.790;2023-05-20T05:25:18;11.23;;;3.72;;
75189;SDS011;69198;44.694;37.790;2023-05-20T05:26:19;10.00;;;3.47;;
75189;SDS011;69198;44.694;37.790;2023-05-20T05:27:21;9.07;;;3.90;;
75189;SDS011;69198;44.694;37.790;2023-05-20T05:28:22;11.30;;;4.07;;
75189;SDS011;69198;44.694;37.790;2023-05-20T05:29:24;9.10;;;3.53;;
75189;SDS011;69198;44.694;37.790;2023-05-20T05:30:25;12.17;;;4.30;;
75189;SDS011;69198;44.694;37.790;2023-05-20T05:31:26;12.15;;;4.40;;
75189;SDS011;69198;44.694;37.790;2023-05-20T05:32:27;9.77;;;4.40;;
75189;SDS011;69198;44.694;37.790;2023-05-20T05:33:29;11.40;;;4.50;;
75189;SDS011;69198;44.694;37.790;2023-05-20T05:34:30;8.73;;;4.20;;
75189;SDS011;69198;44.694;37.790;2023-05-20T05:35:31;9.38;;;4.47;;
75189;SDS011;69198;44.694;37.790;2023-05-20T05:36:32;9.48;;;4.40;;
75189;SDS011;69198;44.694;37.790;2023-05-20T05:37:34;9.52;;;4.53;;
75189;SDS011;69198;44.694;37.790;2023-05-20T05:38:35;9.63;;;4.57;;
75189;SDS011;69198;44.694;37.790;2023-05-20T05:39:37;15.25;;;4.40;;
75189;SDS011;69198;44.694;37.790;2023-05-20T05:40:38;11.13;;;4.73;;
75189;SDS011;69198;44.694;37.790;2023-05-20T05:41:40;10.35;;;4.35;;
75189;SDS011;69198;44.694;37.790;2023-05-20T05:42:41;14.93;;;5.00;;
75189;SDS011;69198;44.694;37.790;2023-05-20T05:43:42;9.63;;;4.60;;
75189;SDS011;69198;44.694;37.790;2023-05-20T05:44:43;10.48;;;4.53;;
75189;SDS011;69198;44.694;37.790;2023-05-20T05:45:44;10.55;;;4.85;;
75189;SDS011;69198;44.694;37.790;2023-05-20T05:46:46;11.18;;;5.25;;
75189;SDS011;69198;44.694;37.790;2023-05-20T05:47:47;10.70;;;4.40;;
75189;SDS011;69198;44.694;37.790;2023-05-20T05:48:48;10.15;;;4.80;;
75189;SDS011;69198;44.694;37.790;2023-05-20T05:49:51;9.83;;;4.80;;
75189;SDS011;69198;44.694;37.790;2023-05-20T05:50:52;12.38;;;4.93;;
75189;SDS011;69198;44.694;37.790;2023-05-20T05:51:55;11.77;;;5.18;;
75189;SDS011;69198;44.694;37.790;2023-05-20T05:52:57;11.80;;;5.47;;
75189;SDS011;69198;44.694;37.790;2023-05-20T05:53:58;14.07;;;5.35;;
75189;SDS011;69198;44.694;37.790;2023-05-20T05:54:59;8.57;;;4.93;;
75189;SDS011;69198;44.694;37.790;2023-05-20T05:56:01;11.90;;;5.25;;
75189;SDS011;69198;44.694;37.790;2023-05-20T05:57:03;9.93;;;5.30;;
75189;SDS011;69198;44.694;37.790;2023-05-20T05:58:06;9.80;;;4.90;;
75189;SDS011;69198;44.694;37.790;2023-05-20T05:59:07;12.57;;;5.07;;